Time;durP1;ratioP1;P1;durP2;ratioP2;P2;SDS_P1;SDS_P2;PMS_P1;PMS_P2;Temp;Humidity;BMP_temperature;BMP_pressure;BME280_temperature;BME280_humidity;BME280_pressure;Samples;Min_cycle;Max_cycle;Signal;HPM_P1;HPM_P2
2021/03/14 00:02:11;;;;;;;0.87;0.87;;;;;;;19.43;44.83;99218.50;;;;-51
2021/03/14 00:05:11;;;;;;;0.94;0.93;;;;;;;19.41;44.89;99216.42;;;;-51
2021/03/14 00:08:11;;;;;;;0.81;0.81;;;;;;;19.39;44.84;99216.05;;;;-52
2021/03/14 00:11:11;;;;;;;0.91;0.91;;;;;;;19.38;44.88;99219.47;;;;-51
2021/03/14 00:14:11;;;;;;;0.80;0.80;;;;;;;19.35;44.91;99221.69;;;;-51
2021/03/14 00:17:11;;;;;;;0.90;0.90;;;;;;;19.34;44.94;99222.67;;;;-51
2021/03/14 00:20:11;;;;;;;0.98;0.90;;;;;;;19.31;44.87;99225.14;;;;-52
2021/03/14 00:23:11;;;;;;;0.75;0.75;;;;;;;19.29;44.96;99230.86;;;;-51
2021/03/14 00:26:11;;;;;;;1.57;0.84;;;;;;;19.27;44.91;99241.03;;;;-52
2021/03/14 00:29:11;;;;;;;0.81;0.81;;;;;;;19.26;44.93;99253.08;;;;-53
2021/03/14 00:32:11;;;;;;;0.85;0.80;;;;;;;19.24;44.96;99256.27;;;;-51
2021/03/14 00:35:11;;;;;;;0.91;0.91;;;;;;;19.22;44.97;99258.41;;;;-52
2021/03/14 00:38:11;;;;;;;0.96;0.90;;;;;;;19.21;44.91;99258.41;;;;-51
2021/03/14 00:41:11;;;;;;;0.69;0.69;;;;;;;19.19;44.96;99257.20;;;;-52
2021/03/14 00:44:11;;;;;;;0.95;0.90;;;;;;;19.17;44.92;99261.29;;;;-51
2021/03/14 00:47:11;;;;;;;0.85;0.85;;;;;;;19.15;44.96;99267.16;;;;-51
2021/03/14 00:50:11;;;;;;;0.83;0.83;;;;;;;19.14;44.96;99275.23;;;;-52
2021/03/14 00:53:11;;;;;;;1.35;0.97;;;;;;;19.12;44.94;99273.88;;;;-51
2021/03/14 00:56:11;;;;;;;0.80;0.80;;;;;;;19.11;45.01;99270.70;;;;-51
2021/03/14 00:59:11;;;;;;;0.89;0.89;;;;;;;19.09;45.00;99273.34;;;;-52
2021/03/14 01:02:11;;;;;;;1.07;0.84;;;;;;;19.07;44.97;99274.99;;;;-51
2021/03/14 01:05:11;;;;;;;0.82;0.82;;;;;;;19.06;44.99;99282.37;;;;-51
2021/03/14 01:08:11;;;;;;;0.80;0.80;;;;;;;19.05;44.99;99290.09;;;;-52
2021/03/14 01:11:11;;;;;;;0.79;0.79;;;;;;;19.02;44.96;99291.99;;;;-52
2021/03/14 01:14:11;;;;;;;0.80;0.80;;;;;;;19.02;45.00;99287.45;;;;-52
2021/03/14 01:17:11;;;;;;;1.03;0.91;;;;;;;19.00;45.04;99284.37;;;;-51
2021/03/14 01:20:11;;;;;;;0.93;0.93;;;;;;;18.98;45.05;99292.59;;;;-52
2021/03/14 01:23:11;;;;;;;1.05;0.99;;;;;;;18.97;45.06;99297.92;;;;-52
2021/03/14 01:26:11;;;;;;;0.77;0.77;;;;;;;18.95;45.05;99303.61;;;;-53
2021/03/14 01:29:11;;;;;;;0.98;0.93;;;;;;;18.94;45.07;99307.75;;;;-52
2021/03/14 01:32:11;;;;;;;0.95;0.75;;;;;;;18.92;45.11;99308.82;;;;-51
2021/03/14 01:35:11;;;;;;;0.83;0.83;;;;;;;18.92;45.08;99311.91;;;;-53
2021/03/14 01:38:11;;;;;;;0.79;0.79;;;;;;;18.90;45.10;99312.16;;;;-53
2021/03/14 01:41:11;;;;;;;0.88;0.88;;;;;;;18.89;45.12;99316.41;;;;-52
2021/03/14 01:44:11;;;;;;;1.01;0.90;;;;;;;18.88;45.11;99321.69;;;;-52
2021/03/14 01:47:11;;;;;;;0.74;0.74;;;;;;;18.87;45.11;99321.55;;;;-53
2021/03/14 01:50:11;;;;;;;0.86;0.86;;;;;;;18.85;45.13;99323.66;;;;-51
2021/03/14 01:53:11;;;;;;;0.78;0.78;;;;;;;18.83;45.15;99325.47;;;;-52
2021/03/14 01:56:11;;;;;;;0.87;0.87;;;;;;;18.83;45.14;99331.41;;;;-51
2021/03/14 01:59:11;;;;;;;0.89;0.89;;;;;;;18.82;45.21;99331.73;;;;-52
2021/03/14 02:02:11;;;;;;;0.89;0.89;;;;;;;18.79;45.16;99325.02;;;;-51
2021/03/14 02:05:11;;;;;;;1.14;0.92;;;;;;;18.78;45.17;99331.66;;;;-52
2021/03/14 02:08:11;;;;;;;0.80;0.80;;;;;;;18.77;45.11;99330.13;;;;-52
2021/03/14 02:11:11;;;;;;;0.97;0.91;;;;;;;18.76;45.15;99342.31;;;;-52
2021/03/14 02:14:11;;;;;;;0.87;0.87;;;;;;;18.76;45.17;99345.13;;;;-52
2021/03/14 02:17:11;;;;;;;0.83;0.83;;;;;;;18.74;45.15;99351.25;;;;-52
2021/03/14 02:20:11;;;;;;;0.85;0.85;;;;;;;18.73;45.16;99364.17;;;;-52
2021/03/14 02:23:11;;;;;;;0.86;0.86;;;;;;;18.72;45.21;99368.37;;;;-51
2021/03/14 02:26:11;;;;;;;0.80;0.80;;;;;;;18.70;45.22;99374.26;;;;-52
2021/03/14 02:29:11;;;;;;;0.77;0.77;;;;;;;18.69;45.19;99392.34;;;;-52
2021/03/14 02:32:11;;;;;;;0.61;0.61;;;;;;;18.67;45.20;99400.22;;;;-52
2021/03/14 02:35:11;;;;;;;0.79;0.79;;;;;;;18.67;45.18;99401.78;;;;-53
2021/03/14 02:38:11;;;;;;;0.75;0.75;;;;;;;18.66;45.17;99401.55;;;;-51
2021/03/14 02:41:11;;;;;;;0.84;0.84;;;;;;;18.65;45.15;99411.20;;;;-51
2021/03/14 02:44:11;;;;;;;0.81;0.81;;;;;;;18.63;45.19;99410.72;;;;-52
2021/03/14 02:47:11;;;;;;;0.90;0.90;;;;;;;18.62;45.20;99416.27;;;;-51
2021/03/14 02:50:11;;;;;;;0.83;0.83;;;;;;;18.61;45.14;99422.33;;;;-52
2021/03/14 02:53:11;;;;;;;0.86;0.86;;;;;;;18.60;45.16;99423.66;;;;-52
2021/03/14 02:56:11;;;;;;;0.73;0.73;;;;;;;18.59;45.19;99427.30;;;;-52
2021/03/14 02:59:11;;;;;;;0.78;0.78;;;;;;;18.57;45.19;99429.37;;;;-51
2021/03/14 03:02:11;;;;;;;0.79;0.79;;;;;;;18.56;45.17;99431.80;;;;-52
2021/03/14 03:05:11;;;;;;;0.75;0.75;;;;;;;18.56;45.19;99436.19;;;;-52
2021/03/14 03:08:11;;;;;;;0.77;0.77;;;;;;;18.55;45.18;99439.77;;;;-51
2021/03/14 03:11:11;;;;;;;0.84;0.81;;;;;;;18.54;45.22;99439.11;;;;-52
2021/03/14 03:14:11;;;;;;;0.88;0.79;;;;;;;18.53;45.19;99450.40;;;;-52
2021/03/14 03:17:11;;;;;;;0.79;0.79;;;;;;;18.52;45.18;99454.38;;;;-51
2021/03/14 03:20:11;;;;;;;0.80;0.80;;;;;;;18.51;45.24;99452.52;;;;-51
2021/03/14 03:23:11;;;;;;;0.70;0.70;;;;;;;18.50;45.20;99457.47;;;;-52
2021/03/14 03:26:11;;;;;;;0.70;0.70;;;;;;;18.49;45.21;99464.03;;;;-51
2021/03/14 03:29:11;;;;;;;0.76;0.76;;;;;;;18.48;45.17;99466.23;;;;-52
2021/03/14 03:32:11;;;;;;;0.91;0.87;;;;;;;18.47;45.26;99474.21;;;;-52
2021/03/14 03:35:11;;;;;;;0.72;0.72;;;;;;;18.46;45.23;99484.17;;;;-52
2021/03/14 03:38:11;;;;;;;0.86;0.86;;;;;;;18.45;45.23;99493.85;;;;-51
2021/03/14 03:41:11;;;;;;;0.83;0.83;;;;;;;18.44;45.22;99506.48;;;;-51
2021/03/14 03:44:11;;;;;;;0.90;0.90;;;;;;;18.43;45.27;99513.32;;;;-53
2021/03/14 03:47:11;;;;;;;1.01;0.95;;;;;;;18.42;45.31;99514.13;;;;-52
2021/03/14 03:50:11;;;;;;;0.77;0.77;;;;;;;18.41;45.21;99516.25;;;;-51
2021/03/14 03:53:11;;;;;;;0.69;0.69;;;;;;;18.40;45.23;99516.01;;;;-52
2021/03/14 03:56:11;;;;;;;0.83;0.82;;;;;;;18.39;45.27;99519.84;;;;-52
2021/03/14 03:59:11;;;;;;;0.71;0.71;;;;;;;18.38;45.26;99518.27;;;;-52
2021/03/14 04:02:11;;;;;;;0.83;0.83;;;;;;;18.38;45.28;99524.52;;;;-52
2021/03/14 04:05:11;;;;;;;0.72;0.72;;;;;;;18.38;45.25;99522.09;;;;-52
2021/03/14 04:08:11;;;;;;;0.71;0.71;;;;;;;18.36;45.23;99524.31;;;;-52
2021/03/14 04:11:11;;;;;;;0.80;0.80;;;;;;;18.35;45.27;99528.44;;;;-51
2021/03/14 04:14:11;;;;;;;0.79;0.78;;;;;;;18.34;45.31;99536.00;;;;-52
2021/03/14 04:17:11;;;;;;;0.71;0.71;;;;;;;18.33;45.31;99540.78;;;;-51
2021/03/14 04:20:11;;;;;;;0.75;0.75;;;;;;;18.32;45.32;99543.13;;;;-52
2021/03/14 04:23:11;;;;;;;0.75;0.75;;;;;;;18.30;45.30;99550.45;;;;-52
2021/03/14 04:26:11;;;;;;;0.66;0.66;;;;;;;18.30;45.25;99555.97;;;;-52
2021/03/14 04:29:11;;;;;;;0.69;0.69;;;;;;;18.29;45.29;99563.58;;;;-51
2021/03/14 04:32:11;;;;;;;0.69;0.69;;;;;;;18.28;45.27;99573.08;;;;-51
2021/03/14 04:35:11;;;;;;;0.77;0.77;;;;;;;18.28;45.28;99578.01;;;;-52
2021/03/14 04:38:11;;;;;;;0.63;0.63;;;;;;;18.27;45.33;99583.05;;;;-52
2021/03/14 04:41:11;;;;;;;0.70;0.70;;;;;;;18.26;45.26;99594.91;;;;-52
2021/03/14 04:44:11;;;;;;;0.60;0.60;;;;;;;18.26;45.26;99604.31;;;;-53
2021/03/14 04:47:11;;;;;;;0.67;0.67;;;;;;;18.25;45.23;99609.98;;;;-52
2021/03/14 04:50:11;;;;;;;0.86;0.85;;;;;;;18.24;45.28;99612.16;;;;-52
2021/03/14 04:53:11;;;;;;;0.71;0.71;;;;;;;18.23;45.26;99623.03;;;;-52
2021/03/14 04:56:11;;;;;;;0.80;0.80;;;;;;;18.23;45.34;99630.66;;;;-52
2021/03/14 04:59:11;;;;;;;0.70;0.70;;;;;;;18.21;45.30;99634.87;;;;-52
2021/03/14 05:02:11;;;;;;;0.79;0.79;;;;;;;18.20;45.23;99642.81;;;;-52
2021/03/14 05:05:11;;;;;;;0.65;0.65;;;;;;;18.20;45.33;99649.23;;;;-51
2021/03/14 05:08:11;;;;;;;0.78;0.78;;;;;;;18.20;45.31;99654.82;;;;-51
2021/03/14 05:11:11;;;;;;;0.67;0.67;;;;;;;18.19;45.36;99659.38;;;;-51
2021/03/14 05:14:11;;;;;;;0.65;0.65;;;;;;;18.17;45.29;99658.47;;;;-52
2021/03/14 05:17:11;;;;;;;0.74;0.74;;;;;;;18.17;45.28;99664.40;;;;-52
2021/03/14 05:20:11;;;;;;;0.83;0.83;;;;;;;18.16;45.21;99671.14;;;;-52
2021/03/14 05:23:11;;;;;;;0.79;0.79;;;;;;;18.15;45.31;99679.56;;;;-52
2021/03/14 05:26:11;;;;;;;0.61;0.61;;;;;;;18.15;45.31;99689.22;;;;-52
2021/03/14 05:29:11;;;;;;;0.75;0.75;;;;;;;18.14;45.28;99697.91;;;;-52
2021/03/14 05:32:11;;;;;;;0.68;0.68;;;;;;;18.14;45.26;99703.02;;;;-51
2021/03/14 05:35:11;;;;;;;0.70;0.70;;;;;;;18.13;45.26;99704.79;;;;-52
2021/03/14 05:38:11;;;;;;;0.57;0.57;;;;;;;18.12;45.31;99709.67;;;;-51
2021/03/14 05:41:11;;;;;;;0.89;0.89;;;;;;;18.11;45.27;99711.10;;;;-52
2021/03/14 05:44:11;;;;;;;0.82;0.82;;;;;;;18.11;45.27;99721.33;;;;-53
2021/03/14 05:47:11;;;;;;;0.81;0.81;;;;;;;18.09;45.33;99720.34;;;;-51
2021/03/14 05:50:11;;;;;;;0.81;0.81;;;;;;;18.09;45.30;99729.03;;;;-52
2021/03/14 05:53:11;;;;;;;0.71;0.71;;;;;;;18.08;45.30;99735.69;;;;-52
2021/03/14 05:56:11;;;;;;;0.73;0.73;;;;;;;18.08;45.29;99735.61;;;;-51
2021/03/14 05:59:11;;;;;;;0.77;0.77;;;;;;;18.06;45.32;99734.63;;;;-52
2021/03/14 06:02:11;;;;;;;0.74;0.74;;;;;;;18.06;45.30;99741.44;;;;-53
2021/03/14 06:05:11;;;;;;;1.01;1.00;;;;;;;18.05;45.30;99745.23;;;;-52
2021/03/14 06:08:11;;;;;;;0.78;0.78;;;;;;;18.05;45.31;99753.52;;;;-52
2021/03/14 06:11:11;;;;;;;0.79;0.79;;;;;;;18.05;45.31;99760.39;;;;-52
2021/03/14 06:14:11;;;;;;;0.84;0.84;;;;;;;18.03;45.31;99764.13;;;;-51
2021/03/14 06:17:11;;;;;;;0.70;0.70;;;;;;;18.03;45.26;99771.50;;;;-51
2021/03/14 06:20:11;;;;;;;0.71;0.71;;;;;;;18.03;45.26;99775.88;;;;-52
2021/03/14 06:23:11;;;;;;;0.86;0.86;;;;;;;18.03;45.22;99785.88;;;;-51
2021/03/14 06:26:11;;;;;;;0.83;0.83;;;;;;;18.03;45.32;99792.25;;;;-52
2021/03/14 06:29:11;;;;;;;0.78;0.78;;;;;;;18.03;45.27;99801.50;;;;-52
2021/03/14 06:32:11;;;;;;;0.79;0.79;;;;;;;18.03;45.34;99809.13;;;;-52
2021/03/14 06:35:11;;;;;;;0.79;0.79;;;;;;;18.04;45.29;99813.36;;;;-53
2021/03/14 06:38:11;;;;;;;0.75;0.75;;;;;;;18.05;45.25;99815.94;;;;-52
2021/03/14 06:41:11;;;;;;;0.61;0.61;;;;;;;18.05;45.24;99825.50;;;;-52
2021/03/14 06:44:11;;;;;;;0.78;0.78;;;;;;;18.07;45.36;99830.20;;;;-52
2021/03/14 06:47:12;;;;;;;0.63;0.63;;;;;;;18.08;45.31;99834.77;;;;-52
2021/03/14 06:50:11;;;;;;;0.74;0.74;;;;;;;18.09;45.30;99835.72;;;;-52
2021/03/14 06:53:11;;;;;;;0.63;0.63;;;;;;;18.12;45.24;99843.04;;;;-52
2021/03/14 06:56:11;;;;;;;0.72;0.72;;;;;;;18.16;45.24;99843.11;;;;-52
2021/03/14 06:59:11;;;;;;;0.64;0.64;;;;;;;18.20;45.28;99847.09;;;;-52
2021/03/14 07:02:11;;;;;;;0.73;0.73;;;;;;;18.23;45.23;99845.33;;;;-52
2021/03/14 07:05:11;;;;;;;0.66;0.66;;;;;;;18.27;45.18;99850.52;;;;-53
2021/03/14 07:08:11;;;;;;;0.70;0.70;;;;;;;18.30;45.28;99858.49;;;;-52
2021/03/14 07:11:11;;;;;;;0.66;0.66;;;;;;;18.33;45.24;99864.08;;;;-52
2021/03/14 07:14:11;;;;;;;0.81;0.81;;;;;;;18.37;45.31;99863.44;;;;-52
2021/03/14 07:17:11;;;;;;;0.75;0.75;;;;;;;18.40;45.23;99870.48;;;;-52
2021/03/14 07:20:11;;;;;;;0.80;0.80;;;;;;;18.44;45.37;99878.61;;;;-52
2021/03/14 07:23:13;;;;;;;0.61;0.61;;;;;;;18.44;45.40;99876.73;;;;-52
2021/03/14 07:26:11;;;;;;;0.73;0.73;;;;;;;18.45;45.36;99876.35;;;;-52
2021/03/14 07:29:11;;;;;;;0.73;0.73;;;;;;;18.47;45.35;99886.83;;;;-53
2021/03/14 07:32:11;;;;;;;0.75;0.75;;;;;;;18.48;45.27;99891.03;;;;-52
2021/03/14 07:35:11;;;;;;;0.82;0.82;;;;;;;18.48;45.33;99897.52;;;;-52
2021/03/14 07:38:11;;;;;;;0.74;0.74;;;;;;;18.49;45.28;99907.19;;;;-53
2021/03/14 07:41:11;;;;;;;0.74;0.74;;;;;;;18.50;45.26;99921.95;;;;-52
2021/03/14 07:44:11;;;;;;;0.75;0.75;;;;;;;18.51;45.28;99931.62;;;;-52
2021/03/14 07:47:11;;;;;;;0.70;0.70;;;;;;;18.51;45.29;99934.22;;;;-52
2021/03/14 07:50:11;;;;;;;0.69;0.69;;;;;;;18.50;45.20;99931.36;;;;-52
2021/03/14 07:53:11;;;;;;;0.71;0.71;;;;;;;18.51;45.25;99933.73;;;;-52
2021/03/14 07:56:11;;;;;;;0.63;0.63;;;;;;;18.51;45.08;99940.22;;;;-52
2021/03/14 07:59:11;;;;;;;0.70;0.70;;;;;;;18.51;45.15;99945.90;;;;-50
2021/03/14 08:02:11;;;;;;;0.66;0.66;;;;;;;18.51;45.17;99947.92;;;;-51
2021/03/14 08:05:11;;;;;;;0.69;0.69;;;;;;;18.51;45.15;99951.25;;;;-51
2021/03/14 08:08:11;;;;;;;0.69;0.69;;;;;;;18.51;45.23;99955.94;;;;-51
2021/03/14 08:11:11;;;;;;;0.88;0.88;;;;;;;18.50;45.14;99959.59;;;;-51
2021/03/14 08:14:11;;;;;;;0.79;0.79;;;;;;;18.50;45.10;99965.27;;;;-51
2021/03/14 08:17:11;;;;;;;0.71;0.71;;;;;;;18.49;45.15;99972.07;;;;-52
2021/03/14 08:20:11;;;;;;;0.77;0.77;;;;;;;18.49;45.09;99972.89;;;;-52
2021/03/14 08:23:11;;;;;;;0.70;0.70;;;;;;;18.48;45.14;99973.46;;;;-52
2021/03/14 08:26:11;;;;;;;0.60;0.60;;;;;;;18.48;45.12;99977.03;;;;-52
2021/03/14 08:29:11;;;;;;;0.70;0.70;;;;;;;18.47;45.08;99979.63;;;;-52
2021/03/14 08:32:11;;;;;;;0.69;0.69;;;;;;;18.47;45.09;99979.80;;;;-52
2021/03/14 08:35:11;;;;;;;0.60;0.60;;;;;;;18.47;45.09;99985.53;;;;-52
2021/03/14 08:38:11;;;;;;;0.63;0.63;;;;;;;18.46;45.05;99990.90;;;;-52
2021/03/14 08:41:11;;;;;;;0.60;0.60;;;;;;;18.45;45.02;99992.77;;;;-52
2021/03/14 08:44:12;;;;;;;0.68;0.68;;;;;;;18.46;45.07;99995.28;;;;-52
2021/03/14 08:47:11;;;;;;;0.70;0.70;;;;;;;18.45;45.02;99994.97;;;;-52
2021/03/14 08:50:11;;;;;;;0.71;0.71;;;;;;;18.45;45.03;100000.73;;;;-52
2021/03/14 08:53:11;;;;;;;0.74;0.74;;;;;;;18.44;45.03;100003.79;;;;-52
2021/03/14 08:56:11;;;;;;;0.65;0.65;;;;;;;18.44;45.03;100008.59;;;;-52
2021/03/14 08:59:11;;;;;;;0.80;0.80;;;;;;;18.43;45.03;100005.16;;;;-53
2021/03/14 09:02:12;;;;;;;0.61;0.61;;;;;;;18.42;45.06;100010.36;;;;-52
2021/03/14 09:05:11;;;;;;;0.78;0.78;;;;;;;18.42;45.00;100007.77;;;;-52
2021/03/14 09:08:11;;;;;;;0.71;0.71;;;;;;;18.41;44.99;100003.96;;;;-52
2021/03/14 09:11:11;;;;;;;0.60;0.60;;;;;;;18.41;44.99;100013.53;;;;-52
2021/03/14 09:14:11;;;;;;;0.61;0.61;;;;;;;18.40;45.01;100018.14;;;;-52
2021/03/14 09:17:11;;;;;;;0.75;0.75;;;;;;;18.40;45.01;100014.56;;;;-53
2021/03/14 09:20:11;;;;;;;4.66;0.89;;;;;;;18.40;45.20;100015.78;;;;-58
2021/03/14 09:23:13;;;;;;;2.19;0.81;;;;;;;18.42;45.66;100018.47;;;;-60
2021/03/14 09:26:11;;;;;;;0.75;0.75;;;;;;;18.42;45.90;100014.16;;;;-58
2021/03/14 09:29:11;;;;;;;0.75;0.75;;;;;;;18.44;45.91;100021.97;;;;-55
2021/03/14 09:32:11;;;;;;;0.71;0.71;;;;;;;18.47;46.02;100026.05;;;;-50
2021/03/14 09:35:11;;;;;;;0.95;0.89;;;;;;;18.50;46.03;100022.64;;;;-48
2021/03/14 09:38:11;;;;;;;0.71;0.71;;;;;;;18.54;46.26;100028.98;;;;-47
2021/03/14 09:41:11;;;;;;;0.69;0.69;;;;;;;18.60;46.50;100033.64;;;;-49
2021/03/14 09:44:11;;;;;;;0.69;0.69;;;;;;;18.66;46.54;100029.91;;;;-47
2021/03/14 09:47:11;;;;;;;0.65;0.65;;;;;;;18.73;46.38;100021.40;;;;-48
2021/03/14 09:50:11;;;;;;;0.70;0.70;;;;;;;18.82;46.42;100028.19;;;;-50
2021/03/14 09:53:11;;;;;;;1.32;0.99;;;;;;;18.87;46.19;100033.65;;;;-45
2021/03/14 09:56:11;;;;;;;1.03;0.80;;;;;;;18.90;45.75;100030.55;;;;-45
2021/03/14 09:59:11;;;;;;;0.92;0.77;;;;;;;18.93;45.62;100034.06;;;;-45
2021/03/14 10:02:11;;;;;;;2.29;1.07;;;;;;;18.85;44.76;100034.38;;;;-50
2021/03/14 10:05:11;;;;;;;2.26;1.30;;;;;;;18.79;44.56;100042.88;;;;-43
2021/03/14 10:08:11;;;;;;;3.75;1.14;;;;;;;18.86;45.21;100044.44;;;;-44
2021/03/14 10:11:12;;;;;;;4.90;1.26;;;;;;;18.93;45.39;100045.03;;;;-50
2021/03/14 10:14:11;;;;;;;1.21;1.05;;;;;;;19.02;45.43;100045.20;;;;-48
2021/03/14 10:17:11;;;;;;;2.95;1.22;;;;;;;19.10;45.53;100041.23;;;;-57
2021/03/14 10:20:11;;;;;;;1.11;0.98;;;;;;;19.16;45.65;100039.86;;;;-46
2021/03/14 10:23:11;;;;;;;1.98;1.05;;;;;;;19.21;45.56;100042.77;;;;-53
2021/03/14 10:26:11;;;;;;;2.58;1.11;;;;;;;19.25;45.73;100042.62;;;;-46
2021/03/14 10:29:11;;;;;;;1.47;1.06;;;;;;;19.31;45.67;100045.39;;;;-48
2021/03/14 10:32:11;;;;;;;2.33;1.30;;;;;;;19.32;45.36;100043.20;;;;-48
2021/03/14 10:35:11;;;;;;;1.59;1.08;;;;;;;19.34;45.27;100045.89;;;;-48
2021/03/14 10:38:11;;;;;;;1.27;1.03;;;;;;;19.36;45.17;100039.53;;;;-48
2021/03/14 10:41:11;;;;;;;1.64;1.19;;;;;;;19.36;45.09;100045.62;;;;-48
2021/03/14 10:44:11;;;;;;;2.10;0.98;;;;;;;19.37;45.08;100045.39;;;;-48
2021/03/14 10:47:11;;;;;;;1.45;1.11;;;;;;;19.38;44.95;100041.56;;;;-48
2021/03/14 10:50:11;;;;;;;2.70;1.00;;;;;;;19.39;44.92;100041.65;;;;-48
2021/03/14 10:53:11;;;;;;;2.08;1.12;;;;;;;19.40;44.84;100044.43;;;;-48
2021/03/14 10:56:12;;;;;;;3.07;1.14;;;;;;;19.43;44.91;100044.99;;;;-48
2021/03/14 10:59:11;;;;;;;1.46;1.09;;;;;;;19.44;44.81;100047.25;;;;-48
2021/03/14 11:02:11;;;;;;;1.65;1.10;;;;;;;19.47;44.74;100048.89;;;;-48
2021/03/14 11:05:11;;;;;;;1.39;0.96;;;;;;;19.49;44.76;100050.19;;;;-51
2021/03/14 11:08:11;;;;;;;1.17;0.99;;;;;;;19.51;44.74;100050.83;;;;-48
2021/03/14 11:11:11;;;;;;;1.46;1.00;;;;;;;19.53;44.89;100053.36;;;;-54
2021/03/14 11:14:11;;;;;;;1.53;0.97;;;;;;;19.57;45.04;100054.66;;;;-47
2021/03/14 11:17:11;;;;;;;1.17;1.08;;;;;;;19.63;45.21;100047.17;;;;-62
2021/03/14 11:20:11;;;;;;;1.53;0.99;;;;;;;19.69;45.46;100056.83;;;;-53
2021/03/14 11:23:11;;;;;;;3.74;1.03;;;;;;;19.70;45.40;100059.11;;;;-52
2021/03/14 11:26:11;;;;;;;0.96;0.93;;;;;;;19.72;45.61;100063.30;;;;-62
2021/03/14 11:29:11;;;;;;;1.49;0.81;;;;;;;19.73;45.36;100055.80;;;;-56
2021/03/14 11:32:13;;;;;;;1.59;1.00;;;;;;;19.76;45.37;100074.34;;;;-51
2021/03/14 11:35:11;;;;;;;1.77;1.00;;;;;;;19.81;45.42;100065.95;;;;-53
2021/03/14 11:38:12;;;;;;;2.35;0.93;;;;;;;19.82;45.47;100067.17;;;;-52
2021/03/14 11:41:11;;;;;;;1.79;1.02;;;;;;;19.85;45.33;100072.69;;;;-50
2021/03/14 11:44:11;;;;;;;0.99;0.90;;;;;;;19.87;45.41;100072.38;;;;-61
2021/03/14 11:47:11;;;;;;;1.59;1.01;;;;;;;19.89;45.37;100075.61;;;;-51
2021/03/14 11:50:11;;;;;;;1.82;0.93;;;;;;;19.90;45.32;100080.24;;;;-51
2021/03/14 11:53:11;;;;;;;1.95;0.92;;;;;;;19.95;45.33;100080.00;;;;-56
2021/03/14 11:56:11;;;;;;;1.32;1.10;;;;;;;19.95;45.28;100076.59;;;;-50
2021/03/14 11:59:11;;;;;;;2.77;1.10;;;;;;;19.96;44.99;100079.44;;;;-48
2021/03/14 12:02:11;;;;;;;1.41;1.00;;;;;;;19.98;44.75;100080.55;;;;-48
2021/03/14 12:05:11;;;;;;;1.38;1.10;;;;;;;19.97;44.79;100081.70;;;;-48
2021/03/14 12:08:11;;;;;;;1.22;1.03;;;;;;;19.99;44.64;100080.24;;;;-48
2021/03/14 12:11:11;;;;;;;2.13;0.93;;;;;;;20.00;44.61;100080.30;;;;-48
2021/03/14 12:14:11;;;;;;;1.53;1.05;;;;;;;20.00;44.60;100073.06;;;;-48
2021/03/14 12:17:11;;;;;;;1.16;0.91;;;;;;;20.01;44.44;100071.54;;;;-48
2021/03/14 12:20:11;;;;;;;1.09;1.00;;;;;;;20.02;44.49;100074.37;;;;-48
2021/03/14 12:23:12;;;;;;;0.95;0.90;;;;;;;20.02;44.49;100071.13;;;;-48
2021/03/14 12:26:11;;;;;;;2.02;1.05;;;;;;;20.03;44.49;100067.87;;;;-48
2021/03/14 12:29:12;;;;;;;1.27;0.91;;;;;;;20.02;44.43;100061.27;;;;-48
2021/03/14 12:32:13;;;;;;;1.11;0.99;;;;;;;20.04;44.43;100062.08;;;;-48
2021/03/14 12:35:11;;;;;;;0.79;0.79;;;;;;;20.06;44.40;100060.29;;;;-49
2021/03/14 12:38:11;;;;;;;1.03;0.98;;;;;;;20.05;44.34;100062.59;;;;-49
2021/03/14 12:41:11;;;;;;;0.83;0.83;;;;;;;20.07;44.37;100059.08;;;;-49
2021/03/14 12:44:11;;;;;;;1.03;0.97;;;;;;;20.07;44.30;100056.16;;;;-48
2021/03/14 12:47:11;;;;;;;1.05;0.93;;;;;;;20.09;44.36;100053.30;;;;-53
2021/03/14 12:50:12;;;;;;;0.96;0.89;;;;;;;20.11;44.32;100052.95;;;;-54
2021/03/14 12:53:11;;;;;;;1.24;0.98;;;;;;;20.10;44.19;100049.30;;;;-54
2021/03/14 12:56:11;;;;;;;1.31;1.21;;;;;;;20.13;44.29;100052.16;;;;-55
2021/03/14 12:59:11;;;;;;;1.04;0.86;;;;;;;20.13;44.28;100048.41;;;;-53
2021/03/14 13:02:11;;;;;;;1.75;1.05;;;;;;;20.14;44.25;100042.05;;;;-54
2021/03/14 13:05:11;;;;;;;0.93;0.90;;;;;;;20.15;44.17;100038.97;;;;-54
2021/03/14 13:08:11;;;;;;;1.14;1.05;;;;;;;20.17;44.21;100035.55;;;;-55
2021/03/14 13:11:11;;;;;;;1.25;1.10;;;;;;;20.17;44.22;100029.03;;;;-53
2021/03/14 13:14:11;;;;;;;1.27;1.02;;;;;;;20.18;44.25;100030.66;;;;-54
2021/03/14 13:17:11;;;;;;;0.87;0.81;;;;;;;20.20;44.15;100031.94;;;;-54
2021/03/14 13:20:12;;;;;;;1.09;0.99;;;;;;;20.21;44.16;100033.58;;;;-54
2021/03/14 13:23:11;;;;;;;1.26;0.94;;;;;;;20.21;44.13;100032.50;;;;-55
2021/03/14 13:26:11;;;;;;;1.28;1.07;;;;;;;20.23;44.15;100031.59;;;;-54
2021/03/14 13:29:11;;;;;;;0.98;0.96;;;;;;;20.24;44.10;100029.91;;;;-53
2021/03/14 13:32:11;;;;;;;1.02;0.99;;;;;;;20.24;44.17;100028.18;;;;-54
2021/03/14 13:35:11;;;;;;;1.13;1.03;;;;;;;20.25;44.13;100023.70;;;;-53
2021/03/14 13:38:11;;;;;;;0.83;0.83;;;;;;;20.25;44.08;100021.25;;;;-55
2021/03/14 13:41:11;;;;;;;1.20;1.11;;;;;;;20.26;44.06;100024.43;;;;-54
2021/03/14 13:44:11;;;;;;;1.10;1.00;;;;;;;20.29;44.04;100022.95;;;;-53
2021/03/14 13:47:11;;;;;;;1.34;1.09;;;;;;;20.31;44.11;100023.02;;;;-53
2021/03/14 13:50:11;;;;;;;2.76;0.90;;;;;;;20.33;44.31;100020.08;;;;-54
2021/03/14 13:53:11;;;;;;;1.50;1.02;;;;;;;20.39;44.55;100018.20;;;;-52
2021/03/14 13:56:11;;;;;;;1.29;1.00;;;;;;;20.40;44.55;100021.78;;;;-57
2021/03/14 13:59:11;;;;;;;1.55;1.12;;;;;;;20.45;44.54;100023.70;;;;-56
2021/03/14 14:02:11;;;;;;;2.28;1.10;;;;;;;20.47;44.68;100031.82;;;;-54
2021/03/14 14:05:11;;;;;;;1.21;1.00;;;;;;;20.49;44.81;100034.59;;;;-53
2021/03/14 14:08:11;;;;;;;1.09;1.00;;;;;;;20.51;44.69;100044.02;;;;-56
2021/03/14 14:11:11;;;;;;;1.59;1.10;;;;;;;20.54;44.73;100052.73;;;;-58
2021/03/14 14:14:11;;;;;;;1.23;1.00;;;;;;;20.57;44.62;100052.15;;;;-56
2021/03/14 14:17:11;;;;;;;1.20;1.10;;;;;;;20.59;44.75;100051.02;;;;-59
2021/03/14 14:20:11;;;;;;;2.13;1.10;;;;;;;20.61;44.64;100050.28;;;;-57
2021/03/14 14:23:11;;;;;;;4.71;1.09;;;;;;;20.62;44.65;100050.27;;;;-59
2021/03/14 14:26:11;;;;;;;1.08;1.01;;;;;;;20.63;44.68;100053.18;;;;-61
2021/03/14 14:29:12;;;;;;;1.21;1.10;;;;;;;20.66;44.63;100052.93;;;;-61
2021/03/14 14:32:11;;;;;;;0.96;0.96;;;;;;;20.67;44.58;100056.19;;;;-61
2021/03/14 14:35:11;;;;;;;1.73;1.01;;;;;;;20.69;44.86;100056.02;;;;-52
2021/03/14 14:38:11;;;;;;;1.51;1.09;;;;;;;20.74;44.86;100055.18;;;;-52
2021/03/14 14:41:11;;;;;;;1.35;1.09;;;;;;;20.76;44.71;100057.94;;;;-55
2021/03/14 14:44:11;;;;;;;1.83;1.27;;;;;;;20.78;44.71;100062.48;;;;-51
2021/03/14 14:47:11;;;;;;;1.77;1.08;;;;;;;20.81;44.76;100064.98;;;;-52
2021/03/14 14:50:11;;;;;;;1.22;1.12;;;;;;;20.79;44.81;100065.83;;;;-54
2021/03/14 14:53:11;;;;;;;1.10;1.00;;;;;;;20.80;44.82;100071.67;;;;-54
2021/03/14 14:56:11;;;;;;;1.23;1.13;;;;;;;20.83;44.80;100070.02;;;;-59
2021/03/14 14:59:11;;;;;;;1.20;1.10;;;;;;;20.83;44.85;100067.00;;;;-52
2021/03/14 15:02:11;;;;;;;1.23;1.13;;;;;;;20.84;44.77;100073.69;;;;-53
2021/03/14 15:05:11;;;;;;;5.15;1.40;;;;;;;20.76;44.44;100075.69;;;;-57
2021/03/14 15:08:11;;;;;;;4.55;1.40;;;;;;;20.73;43.97;100082.55;;;;-55
2021/03/14 15:11:11;;;;;;;3.40;1.33;;;;;;;20.74;44.23;100083.84;;;;-58
2021/03/14 15:14:11;;;;;;;1.78;1.20;;;;;;;20.74;43.97;100083.36;;;;-58
2021/03/14 15:17:11;;;;;;;1.58;1.20;;;;;;;20.73;43.88;100080.81;;;;-58
2021/03/14 15:20:11;;;;;;;3.55;1.30;;;;;;;20.72;43.82;100079.45;;;;-58
2021/03/14 15:23:11;;;;;;;1.23;1.11;;;;;;;20.71;43.86;100074.82;;;;-58
2021/03/14 15:26:11;;;;;;;1.81;1.20;;;;;;;20.71;43.89;100075.15;;;;-58
2021/03/14 15:29:11;;;;;;;1.53;1.24;;;;;;;20.71;43.82;100081.26;;;;-59
2021/03/14 15:32:11;;;;;;;2.22;1.17;;;;;;;20.70;43.74;100082.62;;;;-58
2021/03/14 15:35:11;;;;;;;1.40;1.11;;;;;;;20.68;43.78;100081.25;;;;-58
2021/03/14 15:38:11;;;;;;;2.27;1.20;;;;;;;20.70;43.76;100080.02;;;;-53
2021/03/14 15:41:11;;;;;;;1.18;1.08;;;;;;;20.70;43.98;100077.58;;;;-53
2021/03/14 15:44:11;;;;;;;1.32;1.10;;;;;;;20.73;44.19;100076.99;;;;-56
2021/03/14 15:47:11;;;;;;;1.21;1.00;;;;;;;20.74;44.26;100077.65;;;;-54
2021/03/14 15:50:11;;;;;;;2.34;1.05;;;;;;;20.76;44.42;100078.85;;;;-51
2021/03/14 15:53:11;;;;;;;2.74;1.09;;;;;;;20.80;44.45;100075.67;;;;-57
2021/03/14 15:56:11;;;;;;;1.23;1.10;;;;;;;20.79;44.47;100069.63;;;;-57
2021/03/14 15:59:11;;;;;;;1.26;1.16;;;;;;;20.80;44.39;100070.61;;;;-52
2021/03/14 16:02:11;;;;;;;2.46;1.11;;;;;;;20.83;44.64;100071.16;;;;-52
2021/03/14 16:05:11;;;;;;;1.06;0.99;;;;;;;20.83;44.49;100063.01;;;;-52
2021/03/14 16:08:11;;;;;;;2.07;1.18;;;;;;;20.85;44.55;100064.79;;;;-60
2021/03/14 16:11:11;;;;;;;1.23;1.10;;;;;;;20.87;44.63;100064.37;;;;-58
2021/03/14 16:14:11;;;;;;;1.14;1.05;;;;;;;20.88;44.60;100065.20;;;;-55
2021/03/14 16:17:11;;;;;;;1.30;1.17;;;;;;;20.89;44.52;100065.91;;;;-56
2021/03/14 16:20:11;;;;;;;1.21;1.11;;;;;;;20.90;44.75;100064.78;;;;-51
2021/03/14 16:23:11;;;;;;;1.33;1.20;;;;;;;20.90;44.68;100065.60;;;;-51
2021/03/14 16:26:11;;;;;;;2.02;1.07;;;;;;;20.91;44.65;100072.58;;;;-59
2021/03/14 16:29:11;;;;;;;2.85;1.10;;;;;;;20.93;44.30;100076.32;;;;-59
2021/03/14 16:32:11;;;;;;;1.71;1.20;;;;;;;20.96;45.25;100082.01;;;;-57
2021/03/14 16:35:11;;;;;;;1.09;1.00;;;;;;;21.01;45.29;100084.75;;;;-59
2021/03/14 16:38:11;;;;;;;2.15;1.19;;;;;;;21.02;44.86;100089.23;;;;-58
2021/03/14 16:41:11;;;;;;;1.83;1.30;;;;;;;21.02;44.77;100090.19;;;;-60
2021/03/14 16:44:11;;;;;;;1.29;1.04;;;;;;;21.02;44.60;100085.53;;;;-60
2021/03/14 16:47:11;;;;;;;1.96;1.10;;;;;;;21.01;44.31;100084.44;;;;-60
2021/03/14 16:50:11;;;;;;;2.23;1.10;;;;;;;20.98;44.15;100085.81;;;;-61